createdAt,value
2023-01-21T00:00:08.661Z,20.20
2023-01-21T00:02:36.353Z,20.20
2023-01-21T00:05:04.105Z,20.10
2023-01-21T00:07:31.835Z,20.10
2023-01-21T00:09:59.562Z,20.10
2023-01-21T00:12:27.284Z,20.10
2023-01-21T00:14:55.649Z,20.10
2023-01-21T00:17:23.415Z,20.10
2023-01-21T00:19:51.336Z,20.10
2023-01-21T00:22:19.094Z,20.10
2023-01-21T00:24:46.793Z,20.10
2023-01-21T00:27:14.518Z,20.10
2023-01-21T00:29:42.264Z,20.00
2023-01-21T00:32:10.008Z,20.00
2023-01-21T00:34:37.707Z,20.00
2023-01-21T00:37:05.373Z,20.00
2023-01-21T00:39:33.048Z,20.00
2023-01-21T00:42:00.790Z,20.00
2023-01-21T00:44:28.587Z,20.00
2023-01-21T00:46:56.314Z,19.90
2023-01-21T00:49:24.041Z,20.00
2023-01-21T00:51:51.748Z,19.90
2023-01-21T00:54:19.496Z,19.90
2023-01-21T00:56:47.227Z,19.90
2023-01-21T00:59:15.084Z,19.90
2023-01-21T01:01:42.893Z,19.90
2023-01-21T01:04:12.190Z,19.90
2023-01-21T01:06:39.885Z,19.90
2023-01-21T01:09:07.940Z,19.90
2023-01-21T01:11:35.690Z,19.90
2023-01-21T01:14:03.462Z,19.90
2023-01-21T01:16:31.157Z,19.90
2023-01-21T01:18:58.875Z,19.80
2023-01-21T01:21:26.574Z,19.90
2023-01-21T01:23:54.810Z,19.80
2023-01-21T01:26:22.548Z,19.80
2023-01-21T01:28:50.330Z,19.80
2023-01-21T01:31:18.247Z,19.80
2023-01-21T01:33:46.180Z,19.80
2023-01-21T01:36:13.973Z,19.80
2023-01-21T01:38:41.697Z,19.80
2023-01-21T01:41:09.617Z,19.80
2023-01-21T01:43:37.310Z,19.80
2023-01-21T01:46:05.168Z,19.80
2023-01-21T01:48:32.923Z,19.70
2023-01-21T01:51:00.680Z,19.70
2023-01-21T01:53:28.436Z,19.70
2023-01-21T01:55:56.164Z,19.70
2023-01-21T01:58:23.876Z,19.70
2023-01-21T02:00:51.563Z,19.70
2023-01-21T02:03:37.105Z,19.60
2023-01-21T02:06:04.889Z,19.70
2023-01-21T02:08:33.314Z,19.60
2023-01-21T02:11:03.809Z,19.60
2023-01-21T02:13:31.652Z,19.60
2023-01-21T02:15:59.480Z,19.60
2023-01-21T02:18:27.257Z,19.60
2023-01-21T02:20:54.960Z,19.60
2023-01-21T02:23:25.878Z,19.60
2023-01-21T02:25:53.860Z,19.60
2023-01-21T02:28:21.605Z,19.60
2023-01-21T02:30:49.365Z,19.60
2023-01-21T02:33:17.117Z,19.60
2023-01-21T02:35:44.905Z,19.60
2023-01-21T02:38:12.612Z,19.60
2023-01-21T02:40:40.355Z,19.60
2023-01-21T02:43:08.207Z,19.60
2023-01-21T02:45:36.282Z,19.60
2023-01-21T02:48:06.108Z,19.60
2023-01-21T02:50:34.342Z,19.50
2023-01-21T02:53:02.051Z,19.60
2023-01-21T02:55:29.779Z,19.50
2023-01-21T02:57:57.575Z,19.50
2023-01-21T03:00:25.390Z,19.50
2023-01-21T03:02:53.165Z,19.50
2023-01-21T03:05:20.904Z,19.50
2023-01-21T03:07:48.642Z,19.50
2023-01-21T03:10:16.560Z,19.50
2023-01-21T03:12:44.450Z,19.50
2023-01-21T03:15:29.971Z,19.50
2023-01-21T03:17:57.681Z,19.40
2023-01-21T03:20:25.396Z,19.40
2023-01-21T03:22:53.255Z,19.40
2023-01-21T03:25:21.029Z,19.40
2023-01-21T03:27:48.720Z,19.40
2023-01-21T03:30:16.807Z,19.40
2023-01-21T03:32:44.919Z,19.40
2023-01-21T03:35:12.709Z,19.40
2023-01-21T03:37:40.466Z,19.40
2023-01-21T03:40:08.188Z,19.30
2023-01-21T03:42:35.931Z,19.40
2023-01-21T03:45:03.781Z,19.40
2023-01-21T03:47:31.863Z,19.30
2023-01-21T03:49:59.576Z,19.30
2023-01-21T03:52:27.304Z,19.30
2023-01-21T03:54:55.064Z,19.40
2023-01-21T03:57:22.727Z,19.40
2023-01-21T03:59:50.502Z,19.40
2023-01-21T04:02:20.315Z,19.30
2023-01-21T04:04:48.287Z,19.30
2023-01-21T04:07:16.058Z,19.30
2023-01-21T04:09:43.769Z,19.30
2023-01-21T04:12:11.900Z,19.30
2023-01-21T04:14:39.662Z,19.30
2023-01-21T04:17:07.474Z,19.30
2023-01-21T04:19:35.215Z,19.30
2023-01-21T04:22:02.967Z,19.30
2023-01-21T04:24:31.400Z,19.30
2023-01-21T04:27:00.352Z,19.30
2023-01-21T04:29:28.147Z,19.20
2023-01-21T04:31:55.997Z,19.20
2023-01-21T04:34:23.806Z,19.20
2023-01-21T04:36:51.625Z,19.20
2023-01-21T04:39:19.446Z,19.20
2023-01-21T04:41:47.307Z,19.20
2023-01-21T04:44:15.049Z,19.20
2023-01-21T04:46:42.865Z,19.20
2023-01-21T04:49:10.713Z,19.20
2023-01-21T04:51:38.548Z,19.20
2023-01-21T04:54:06.453Z,19.20
2023-01-21T04:56:34.185Z,19.20
2023-01-21T04:59:01.933Z,19.20
2023-01-21T05:01:29.753Z,19.10
2023-01-21T05:03:57.482Z,19.10
2023-01-21T05:06:25.263Z,19.10
2023-01-21T05:08:52.997Z,19.10
2023-01-21T05:11:20.854Z,19.10
2023-01-21T05:13:48.608Z,19.10
2023-01-21T05:16:16.463Z,19.00
2023-01-21T05:18:46.733Z,19.00
2023-01-21T05:21:14.662Z,19.10
2023-01-21T05:23:42.406Z,19.00
2023-01-21T05:26:10.129Z,19.00
2023-01-21T05:28:37.926Z,19.10
2023-01-21T05:31:05.760Z,19.00
2023-01-21T05:33:34.011Z,19.00
2023-01-21T05:36:01.745Z,19.00
2023-01-21T05:38:29.503Z,19.10
2023-01-21T05:40:57.329Z,19.00
2023-01-21T05:43:25.038Z,19.10
2023-01-21T05:45:52.885Z,19.10
2023-01-21T05:48:20.636Z,19.10
2023-01-21T05:50:48.490Z,19.30
2023-01-21T05:53:16.223Z,19.80
2023-01-21T05:55:43.992Z,20.30
2023-01-21T05:58:11.722Z,21.00
2023-01-21T06:00:41.932Z,21.50
2023-01-21T06:03:09.726Z,21.90
2023-01-21T06:05:37.460Z,22.40
2023-01-21T06:08:05.467Z,22.70
2023-01-21T06:10:33.212Z,23.00
2023-01-21T06:13:00.976Z,23.30
2023-01-21T06:15:28.726Z,23.60
2023-01-21T06:17:56.481Z,26.20
2023-01-21T06:20:24.198Z,31.30
2023-01-21T06:22:51.948Z,35.90
2023-01-21T06:25:19.714Z,39.70
2023-01-21T06:27:47.495Z,42.30
2023-01-21T06:30:15.443Z,44.10
2023-01-21T06:32:43.371Z,45.40
2023-01-21T06:35:11.096Z,46.40
2023-01-21T06:37:38.865Z,47.00
2023-01-21T06:40:07.581Z,47.50
2023-01-21T06:42:35.370Z,47.70
2023-01-21T06:45:03.116Z,47.90
2023-01-21T06:47:30.852Z,48.10
2023-01-21T06:49:58.580Z,47.90
2023-01-21T06:52:26.297Z,47.60
2023-01-21T06:54:54.205Z,46.70
2023-01-21T06:57:22.030Z,45.70
2023-01-21T06:59:49.795Z,44.50
2023-01-21T07:02:17.587Z,43.20
2023-01-21T07:04:45.628Z,41.90
2023-01-21T07:07:13.403Z,40.60
2023-01-21T07:09:41.807Z,39.30
2023-01-21T07:12:09.559Z,38.20
2023-01-21T07:14:37.648Z,37.10
2023-01-21T07:17:05.399Z,36.00
2023-01-21T07:19:33.211Z,35.00
2023-01-21T07:22:00.978Z,34.10
2023-01-21T07:24:28.754Z,33.30
2023-01-21T07:26:57.201Z,32.50
2023-01-21T07:29:24.945Z,31.70
2023-01-21T07:31:53.021Z,31.00
2023-01-21T07:34:20.850Z,30.40
2023-01-21T07:36:48.613Z,29.70
2023-01-21T07:39:16.612Z,29.10
2023-01-21T07:41:44.378Z,28.60
2023-01-21T07:44:12.160Z,28.10
2023-01-21T07:46:39.975Z,27.60
2023-01-21T07:49:07.723Z,27.30
2023-01-21T07:51:35.484Z,26.90
2023-01-21T07:54:03.316Z,26.60
2023-01-21T07:56:31.144Z,26.30
2023-01-21T07:58:58.942Z,25.90
2023-01-21T08:01:31.142Z,25.70
2023-01-21T08:03:58.977Z,25.40
2023-01-21T08:06:26.744Z,25.20
2023-01-21T08:08:54.546Z,25.50
2023-01-21T08:11:22.379Z,26.50
2023-01-21T08:13:50.137Z,27.70
2023-01-21T08:16:18.009Z,29.40
2023-01-21T08:18:45.821Z,31.50
2023-01-21T08:21:13.561Z,33.50
2023-01-21T08:23:41.287Z,35.40
2023-01-21T08:26:09.066Z,37.30
2023-01-21T08:28:36.833Z,38.70
2023-01-21T08:31:04.635Z,39.40
2023-01-21T08:33:33.129Z,39.50
2023-01-21T08:36:00.909Z,39.20
2023-01-21T08:38:28.768Z,38.50
2023-01-21T08:40:56.496Z,37.70
2023-01-21T08:43:24.262Z,36.80
2023-01-21T08:45:52.044Z,36.00
2023-01-21T08:48:20.165Z,35.00
2023-01-21T08:50:47.936Z,34.10
2023-01-21T08:53:15.669Z,33.20
2023-01-21T08:55:43.392Z,32.40
2023-01-21T08:58:11.137Z,31.60
2023-01-21T09:00:38.971Z,30.90
2023-01-21T09:03:06.779Z,30.30
2023-01-21T09:05:34.564Z,29.70
2023-01-21T09:08:02.384Z,29.10
2023-01-21T09:10:47.735Z,28.50
2023-01-21T09:13:16.434Z,28.10
2023-01-21T09:15:44.391Z,27.70
2023-01-21T09:18:12.251Z,27.30
2023-01-21T09:20:40.043Z,26.90
2023-01-21T09:23:24.288Z,26.60
2023-01-21T09:25:52.334Z,26.20
2023-01-21T09:28:23.371Z,25.90
2023-01-21T09:30:51.211Z,25.60
2023-01-21T09:33:19.142Z,25.30
2023-01-21T09:35:46.996Z,25.00
2023-01-21T09:38:15.057Z,24.80
2023-01-21T09:40:44.041Z,24.50
2023-01-21T09:43:11.845Z,24.30
2023-01-21T09:45:39.677Z,24.00
2023-01-21T09:48:11.825Z,23.90
2023-01-21T09:50:39.810Z,23.70
2023-01-21T09:53:10.451Z,23.50
2023-01-21T09:55:38.328Z,23.30
2023-01-21T09:58:10.548Z,23.10
2023-01-21T10:00:39.582Z,23.00
2023-01-21T10:03:07.452Z,22.80
2023-01-21T10:05:35.306Z,22.70
2023-01-21T10:08:03.184Z,22.60
2023-01-21T10:10:31.170Z,22.40
2023-01-21T10:12:59.017Z,22.30
2023-01-21T10:15:26.961Z,22.10
2023-01-21T10:17:57.786Z,22.10
2023-01-21T10:20:25.721Z,22.00
2023-01-21T10:22:55.918Z,21.80
2023-01-21T10:25:25.837Z,21.80
2023-01-21T10:27:53.711Z,21.70
2023-01-21T10:30:21.512Z,21.60
2023-01-21T10:32:49.361Z,21.60
2023-01-21T10:35:17.336Z,21.50
2023-01-21T10:37:45.477Z,21.40
2023-01-21T10:40:14.104Z,21.40
2023-01-21T10:42:42.133Z,21.30
2023-01-21T10:45:10.054Z,21.30
2023-01-21T10:47:37.842Z,21.30
2023-01-21T10:50:05.711Z,21.20
2023-01-21T10:52:33.609Z,21.10
2023-01-21T10:55:02.385Z,21.10
2023-01-21T10:57:31.049Z,21.10
2023-01-21T10:59:58.913Z,21.10
2023-01-21T11:02:26.862Z,21.00
2023-01-21T11:04:54.805Z,21.00
2023-01-21T11:07:22.650Z,21.00
2023-01-21T11:09:50.828Z,20.90
2023-01-21T11:12:18.847Z,20.90
2023-01-21T11:14:49.283Z,20.90
2023-01-21T11:17:17.271Z,20.90
2023-01-21T11:19:45.333Z,20.80
2023-01-21T11:22:13.250Z,20.80
2023-01-21T11:24:41.176Z,20.80
2023-01-21T11:27:09.032Z,20.70
2023-01-21T11:29:37.034Z,20.70
2023-01-21T11:32:04.886Z,20.70
2023-01-21T11:34:32.780Z,20.70
2023-01-21T11:37:00.716Z,20.60
2023-01-21T11:39:28.610Z,20.60
2023-01-21T11:41:58.752Z,20.60
2023-01-21T11:44:27.725Z,20.60
2023-01-21T11:47:00.643Z,20.50
2023-01-21T11:49:28.448Z,20.50
2023-01-21T11:51:58.556Z,20.50
2023-01-21T11:54:26.327Z,20.50
2023-01-21T11:56:54.182Z,20.50
2023-01-21T11:59:21.969Z,20.40
2023-01-21T12:01:49.853Z,20.40
2023-01-21T12:04:17.792Z,20.40
2023-01-21T12:06:47.966Z,20.40
2023-01-21T12:09:15.727Z,20.30
2023-01-21T12:11:43.502Z,20.30
2023-01-21T12:14:11.432Z,20.30
2023-01-21T12:16:39.278Z,20.30
2023-01-21T12:19:07.682Z,20.30
2023-01-21T12:21:35.595Z,20.20
2023-01-21T12:24:03.339Z,20.20
2023-01-21T12:26:31.215Z,20.20
2023-01-21T12:28:58.912Z,20.20
2023-01-21T12:31:26.635Z,20.20
2023-01-21T12:33:54.462Z,20.10
2023-01-21T12:36:22.189Z,20.10
2023-01-21T12:38:49.964Z,20.10
2023-01-21T12:41:17.680Z,20.10
2023-01-21T12:43:46.670Z,20.10
2023-01-21T12:46:14.989Z,20.10
2023-01-21T12:48:42.803Z,20.10
2023-01-21T12:51:10.605Z,20.20
2023-01-21T12:53:38.433Z,21.40
2023-01-21T12:56:08.082Z,26.30
2023-01-21T12:58:37.134Z,32.20
2023-01-21T13:01:14.015Z,37.20
2023-01-21T13:03:41.835Z,40.80
2023-01-21T13:06:09.546Z,43.20
2023-01-21T13:08:37.281Z,44.70
2023-01-21T13:11:05.069Z,45.80
2023-01-21T13:13:32.800Z,46.70
2023-01-21T13:16:00.773Z,47.20
2023-01-21T13:18:28.492Z,47.50
2023-01-21T13:20:56.255Z,47.40
2023-01-21T13:23:23.975Z,47.00
2023-01-21T13:25:53.303Z,46.20
2023-01-21T13:28:21.025Z,45.10
2023-01-21T13:30:48.914Z,43.90
2023-01-21T13:33:16.820Z,42.60
2023-01-21T13:35:44.547Z,41.30
2023-01-21T13:38:12.377Z,40.10
2023-01-21T13:40:40.133Z,38.90
2023-01-21T13:43:08.007Z,37.70
2023-01-21T13:45:35.781Z,36.70
2023-01-21T13:48:03.543Z,35.70
2023-01-21T13:50:31.320Z,34.70
2023-01-21T13:52:59.053Z,33.90
2023-01-21T13:55:26.834Z,33.20
2023-01-21T13:57:54.650Z,32.50
2023-01-21T14:00:22.371Z,31.80
2023-01-21T14:02:50.256Z,31.20
2023-01-21T14:05:18.024Z,30.50
2023-01-21T14:07:45.736Z,29.90
2023-01-21T14:10:13.779Z,29.40
2023-01-21T14:12:41.481Z,28.90
2023-01-21T14:15:09.151Z,28.40
2023-01-21T14:17:37.024Z,27.90
2023-01-21T14:20:04.764Z,27.50
2023-01-21T14:22:32.663Z,27.10
2023-01-21T14:25:01.068Z,26.80
2023-01-21T14:27:28.807Z,26.50
2023-01-21T14:29:56.556Z,26.20
2023-01-21T14:32:24.324Z,25.90
2023-01-21T14:34:52.134Z,25.60
2023-01-21T14:37:19.978Z,25.40
2023-01-21T14:39:47.668Z,25.10
2023-01-21T14:42:17.425Z,24.90
2023-01-21T14:44:45.263Z,24.60
2023-01-21T14:47:13.031Z,24.40
2023-01-21T14:49:40.781Z,24.20
2023-01-21T14:52:08.537Z,24.00
2023-01-21T14:54:36.228Z,23.80
2023-01-21T14:57:18.119Z,24.00
2023-01-21T14:59:46.717Z,25.10
2023-01-21T15:02:14.551Z,27.90
2023-01-21T15:04:42.409Z,32.10
2023-01-21T15:07:10.169Z,36.00
2023-01-21T15:09:37.914Z,38.60
2023-01-21T15:12:05.666Z,39.90
2023-01-21T15:14:33.387Z,40.50
2023-01-21T15:17:01.632Z,40.70
2023-01-21T15:19:29.538Z,40.50
2023-01-21T15:21:57.837Z,40.10
2023-01-21T15:24:26.094Z,39.40
2023-01-21T15:26:54.110Z,38.60
2023-01-21T15:29:21.905Z,37.70
2023-01-21T15:31:49.796Z,36.70
2023-01-21T15:34:17.743Z,35.80
2023-01-21T15:36:47.137Z,34.90
2023-01-21T15:39:15.280Z,34.00
2023-01-21T15:41:45.088Z,33.20
2023-01-21T15:44:14.474Z,32.40
2023-01-21T15:46:45.419Z,31.70
2023-01-21T15:49:15.202Z,31.00
2023-01-21T15:51:44.354Z,30.40
2023-01-21T15:54:14.714Z,29.80
2023-01-21T15:56:45.638Z,29.20
2023-01-21T15:59:13.534Z,28.60
2023-01-21T16:01:44.145Z,28.20
2023-01-21T16:04:13.341Z,27.70
2023-01-21T16:06:41.363Z,27.30
2023-01-21T16:09:11.824Z,26.90
2023-01-21T16:11:42.837Z,26.60
2023-01-21T16:14:14.483Z,26.30
2023-01-21T16:16:43.095Z,26.00
2023-01-21T16:19:11.033Z,25.80
2023-01-21T16:21:40.301Z,25.50
2023-01-21T16:24:08.079Z,25.30
2023-01-21T16:26:40.100Z,25.00
2023-01-21T16:29:11.101Z,24.70
2023-01-21T16:31:44.386Z,24.50
2023-01-21T16:34:12.345Z,24.30
2023-01-21T16:36:40.402Z,24.10
2023-01-21T16:39:08.354Z,23.90
2023-01-21T16:41:36.428Z,23.80
2023-01-21T16:44:06.201Z,23.60
2023-01-21T16:46:34.734Z,23.50
2023-01-21T16:49:05.001Z,23.40
2023-01-21T16:51:33.443Z,23.20
2023-01-21T16:54:03.779Z,23.10
2023-01-21T16:56:31.911Z,23.00
2023-01-21T16:59:00.235Z,23.00
2023-01-21T17:01:30.685Z,23.80
2023-01-21T17:04:01.299Z,27.90
2023-01-21T17:06:29.066Z,33.30
2023-01-21T17:08:56.836Z,37.00
2023-01-21T17:11:26.637Z,39.00
2023-01-21T17:13:54.428Z,40.30
2023-01-21T17:16:24.416Z,41.60
2023-01-21T17:18:52.434Z,43.00
2023-01-21T17:21:20.205Z,44.10
2023-01-21T17:23:48.070Z,44.70
2023-01-21T17:26:15.936Z,44.80
2023-01-21T17:28:43.726Z,44.30
2023-01-21T17:31:11.639Z,43.50
2023-01-21T17:33:41.213Z,42.50
2023-01-21T17:36:08.975Z,41.50
2023-01-21T17:38:36.820Z,40.30
2023-01-21T17:41:06.304Z,39.20
2023-01-21T17:43:36.163Z,38.10
2023-01-21T17:46:04.037Z,37.00
2023-01-21T17:48:32.251Z,36.00
2023-01-21T17:51:00.151Z,35.00
2023-01-21T17:53:28.012Z,34.10
2023-01-21T17:55:55.837Z,33.30
2023-01-21T17:58:23.640Z,32.50
2023-01-21T18:00:51.594Z,31.70
2023-01-21T18:03:19.446Z,31.00
2023-01-21T18:05:47.230Z,30.40
2023-01-21T18:08:15.122Z,29.80
2023-01-21T18:10:42.895Z,29.30
2023-01-21T18:13:10.675Z,28.80
2023-01-21T18:15:38.482Z,28.40
2023-01-21T18:18:06.241Z,28.00
2023-01-21T18:20:34.076Z,27.60
2023-01-21T18:23:02.106Z,27.30
2023-01-21T18:25:29.925Z,26.90
2023-01-21T18:27:57.639Z,26.60
2023-01-21T18:30:25.971Z,26.20
2023-01-21T18:32:53.843Z,25.90
2023-01-21T18:35:21.642Z,25.60
2023-01-21T18:37:49.617Z,25.40
2023-01-21T18:40:18.333Z,25.10
2023-01-21T18:42:46.425Z,24.80
2023-01-21T18:45:14.271Z,24.60
2023-01-21T18:47:42.202Z,24.40
2023-01-21T18:50:09.983Z,24.20
2023-01-21T18:52:37.896Z,24.10
2023-01-21T18:55:07.213Z,23.90
2023-01-21T18:57:36.013Z,23.80
2023-01-21T19:00:04.437Z,23.70
2023-01-21T19:02:32.202Z,23.50
2023-01-21T19:04:59.953Z,23.50
2023-01-21T19:07:27.860Z,23.40
2023-01-21T19:09:55.624Z,24.60
2023-01-21T19:12:24.381Z,28.90
2023-01-21T19:14:52.199Z,34.00
2023-01-21T19:17:20.121Z,37.70
2023-01-21T19:19:47.863Z,39.60
2023-01-21T19:22:15.649Z,40.90
2023-01-21T19:24:43.424Z,42.20
2023-01-21T19:27:11.246Z,43.50
2023-01-21T19:29:40.944Z,44.60
2023-01-21T19:32:08.758Z,45.20
2023-01-21T19:34:36.554Z,45.20
2023-01-21T19:37:04.368Z,44.80
2023-01-21T19:39:35.208Z,44.00
2023-01-21T19:42:08.271Z,43.00
2023-01-21T19:44:36.654Z,41.90
2023-01-21T19:47:04.898Z,40.70
2023-01-21T19:49:32.666Z,39.60
2023-01-21T19:52:00.511Z,38.40
2023-01-21T19:54:28.276Z,37.20
2023-01-21T19:56:56.047Z,36.20
2023-01-21T19:59:23.830Z,35.20
2023-01-21T20:01:52.009Z,34.30
2023-01-21T20:04:19.812Z,33.40
2023-01-21T20:06:47.594Z,32.60
2023-01-21T20:09:17.777Z,31.90
2023-01-21T20:11:45.522Z,31.20
2023-01-21T20:14:13.246Z,30.50
2023-01-21T20:16:41.008Z,29.90
2023-01-21T20:19:08.769Z,29.40
2023-01-21T20:21:49.923Z,28.90
2023-01-21T20:24:22.682Z,28.50
2023-01-21T20:26:50.440Z,28.00
2023-01-21T20:29:20.094Z,27.60
2023-01-21T20:31:47.981Z,27.20
2023-01-21T20:34:15.774Z,26.90
2023-01-21T20:36:45.457Z,26.50
2023-01-21T20:39:13.288Z,26.20
2023-01-21T20:41:41.123Z,25.90
2023-01-21T20:44:08.903Z,25.60
2023-01-21T20:46:36.633Z,25.30
2023-01-21T20:49:04.406Z,25.10
2023-01-21T20:51:32.161Z,24.80
2023-01-21T20:53:59.924Z,24.60
2023-01-21T20:56:27.628Z,24.40
2023-01-21T20:58:55.389Z,24.20
2023-01-21T21:01:23.146Z,24.00
2023-01-21T21:03:50.979Z,23.90
2023-01-21T21:06:18.744Z,23.70
2023-01-21T21:08:46.521Z,23.60
2023-01-21T21:11:14.809Z,23.50
2023-01-21T21:13:42.657Z,23.30
2023-01-21T21:16:10.436Z,23.10
2023-01-21T21:18:38.195Z,23.00
2023-01-21T21:21:05.986Z,22.80
2023-01-21T21:23:33.790Z,22.70
2023-01-21T21:26:01.562Z,22.60
2023-01-21T21:28:29.292Z,22.50
2023-01-21T21:30:57.058Z,22.40
2023-01-21T21:33:24.865Z,22.30
2023-01-21T21:35:52.686Z,22.20
2023-01-21T21:38:22.091Z,22.10
2023-01-21T21:40:52.898Z,22.00
2023-01-21T21:43:38.918Z,21.90
2023-01-21T21:46:24.325Z,21.90
2023-01-21T21:48:52.203Z,21.80
2023-01-21T21:51:20.073Z,21.70
2023-01-21T21:53:47.901Z,21.60
2023-01-21T21:56:26.520Z,21.60
2023-01-21T21:58:54.406Z,21.50
2023-01-21T22:01:22.302Z,21.50
2023-01-21T22:03:50.054Z,21.40
2023-01-21T22:06:17.760Z,21.40
2023-01-21T22:08:45.507Z,21.30
2023-01-21T22:11:13.200Z,21.30
2023-01-21T22:13:41.946Z,21.30
2023-01-21T22:16:09.703Z,21.20
2023-01-21T22:18:37.386Z,21.20
2023-01-21T22:21:05.113Z,21.20
2023-01-21T22:23:32.876Z,21.10
2023-01-21T22:26:00.631Z,21.10
2023-01-21T22:28:28.353Z,21.10
2023-01-21T22:30:56.169Z,21.00
2023-01-21T22:33:23.973Z,21.00
2023-01-21T22:35:51.747Z,21.00
2023-01-21T22:38:19.514Z,20.90
2023-01-21T22:40:47.231Z,20.90
2023-01-21T22:43:15.558Z,20.80
2023-01-21T22:45:43.284Z,20.80
2023-01-21T22:48:11.088Z,20.80
2023-01-21T22:50:38.876Z,20.70
2023-01-21T22:53:06.605Z,20.70
2023-01-21T22:55:36.386Z,20.70
2023-01-21T22:58:04.186Z,20.70
2023-01-21T23:00:37.968Z,20.60
2023-01-21T23:03:05.745Z,20.60
2023-01-21T23:05:33.559Z,20.60
2023-01-21T23:08:02.468Z,20.50
2023-01-21T23:10:30.302Z,20.50
2023-01-21T23:12:58.038Z,20.50
2023-01-21T23:15:25.737Z,20.50
2023-01-21T23:17:53.795Z,20.40
2023-01-21T23:20:23.260Z,20.40
2023-01-21T23:22:51.178Z,20.40
2023-01-21T23:25:18.866Z,20.40
2023-01-21T23:27:46.705Z,20.30
2023-01-21T23:30:14.402Z,20.30
2023-01-21T23:32:42.143Z,20.20
2023-01-21T23:35:12.697Z,20.30
2023-01-21T23:37:40.456Z,20.20
2023-01-21T23:40:08.158Z,20.20
2023-01-21T23:42:35.927Z,20.20
2023-01-21T23:45:03.664Z,20.20
2023-01-21T23:47:31.529Z,20.20
2023-01-21T23:49:59.415Z,20.20
2023-01-21T23:52:27.175Z,20.10
2023-01-21T23:54:55.059Z,20.10
2023-01-21T23:57:22.813Z,20.10
2023-01-21T23:59:51.135Z,20.10
